sensor_id;sensor_type;location;lat;lon;timestamp;P1;durP1;ratioP1;P2;durP2;ratioP2
46334;SDS011;32051;48.882;9.210;2023-04-06T00:01:25;6.68;;;6.05;;
46334;SDS011;32051;48.882;9.210;2023-04-06T00:03:51;10.40;;;6.18;;
46334;SDS011;32051;48.882;9.210;2023-04-06T00:06:17;7.47;;;6.50;;
46334;SDS011;32051;48.882;9.210;2023-04-06T00:08:43;9.65;;;6.97;;
46334;SDS011;32051;48.882;9.210;2023-04-06T00:11:09;7.97;;;7.03;;
46334;SDS011;32051;48.882;9.210;2023-04-06T00:13:36;7.53;;;6.82;;
46334;SDS011;32051;48.882;9.210;2023-04-06T00:16:02;6.68;;;5.57;;
46334;SDS011;32051;48.882;9.210;2023-04-06T00:18:30;6.88;;;6.28;;
46334;SDS011;32051;48.882;9.210;2023-04-06T00:20:56;6.90;;;6.20;;
46334;SDS011;32051;48.882;9.210;2023-04-06T00:23:22;7.90;;;6.55;;
46334;SDS011;32051;48.882;9.210;2023-04-06T00:25:48;8.00;;;7.25;;
46334;SDS011;32051;48.882;9.210;2023-04-06T00:28:15;7.00;;;5.97;;
46334;SDS011;32051;48.882;9.210;2023-04-06T00:30:41;14.82;;;7.43;;
46334;SDS011;32051;48.882;9.210;2023-04-06T00:33:07;7.90;;;6.28;;
46334;SDS011;32051;48.882;9.210;2023-04-06T00:35:33;8.55;;;7.07;;
46334;SDS011;32051;48.882;9.210;2023-04-06T00:37:59;8.77;;;6.55;;
46334;SDS011;32051;48.882;9.210;2023-04-06T00:40:26;7.70;;;6.93;;
46334;SDS011;32051;48.882;9.210;2023-04-06T00:42:54;6.63;;;6.00;;
46334;SDS011;32051;48.882;9.210;2023-04-06T00:45:20;6.85;;;6.13;;
46334;SDS011;32051;48.882;9.210;2023-04-06T00:47:46;8.55;;;6.55;;
46334;SDS011;32051;48.882;9.210;2023-04-06T00:50:12;7.15;;;6.20;;
46334;SDS011;32051;48.882;9.210;2023-04-06T00:52:38;7.47;;;6.60;;
46334;SDS011;32051;48.882;9.210;2023-04-06T00:55:06;9.43;;;6.93;;
46334;SDS011;32051;48.882;9.210;2023-04-06T00:57:38;9.18;;;6.90;;
46334;SDS011;32051;48.882;9.210;2023-04-06T01:00:05;8.30;;;6.85;;
46334;SDS011;32051;48.882;9.210;2023-04-06T01:02:32;10.30;;;7.50;;
46334;SDS011;32051;48.882;9.210;2023-04-06T01:04:58;7.90;;;7.10;;
46334;SDS011;32051;48.882;9.210;2023-04-06T01:07:34;8.27;;;7.43;;
46334;SDS011;32051;48.882;9.210;2023-04-06T01:10:24;8.50;;;6.80;;
46334;SDS011;32051;48.882;9.210;2023-04-06T01:12:55;9.75;;;6.75;;
46334;SDS011;32051;48.882;9.210;2023-04-06T01:15:40;8.77;;;6.97;;
46334;SDS011;32051;48.882;9.210;2023-04-06T01:18:08;7.43;;;6.65;;
46334;SDS011;32051;48.882;9.210;2023-04-06T01:20:45;10.35;;;7.35;;
46334;SDS011;32051;48.882;9.210;2023-04-06T01:23:12;7.93;;;7.13;;
46334;SDS011;32051;48.882;9.210;2023-04-06T01:25:44;11.18;;;6.53;;
46334;SDS011;32051;48.882;9.210;2023-04-06T01:28:11;6.55;;;5.80;;
46334;SDS011;32051;48.882;9.210;2023-04-06T01:30:50;8.00;;;5.82;;
46334;SDS011;32051;48.882;9.210;2023-04-06T01:33:36;9.05;;;6.45;;
46334;SDS011;32051;48.882;9.210;2023-04-06T01:36:06;8.98;;;6.70;;
46334;SDS011;32051;48.882;9.210;2023-04-06T01:38:33;8.38;;;5.40;;
46334;SDS011;32051;48.882;9.210;2023-04-06T01:40:59;7.43;;;6.72;;
46334;SDS011;32051;48.882;9.210;2023-04-06T01:43:30;6.32;;;5.75;;
46334;SDS011;32051;48.882;9.210;2023-04-06T01:48:33;5.85;;;5.28;;
46334;SDS011;32051;48.882;9.210;2023-04-06T01:51:08;7.93;;;5.68;;
46334;SDS011;32051;48.882;9.210;2023-04-06T01:53:44;7.70;;;5.75;;
46334;SDS011;32051;48.882;9.210;2023-04-06T01:56:10;10.57;;;5.82;;
46334;SDS011;32051;48.882;9.210;2023-04-06T01:58:41;9.00;;;6.35;;
46334;SDS011;32051;48.882;9.210;2023-04-06T02:01:11;6.30;;;5.70;;
46334;SDS011;32051;48.882;9.210;2023-04-06T02:03:48;6.40;;;5.72;;
46334;SDS011;32051;48.882;9.210;2023-04-06T02:06:15;11.73;;;5.78;;
46334;SDS011;32051;48.882;9.210;2023-04-06T02:08:41;10.52;;;5.95;;
46334;SDS011;32051;48.882;9.210;2023-04-06T02:11:07;11.98;;;5.75;;
46334;SDS011;32051;48.882;9.210;2023-04-06T02:13:40;7.18;;;5.00;;
46334;SDS011;32051;48.882;9.210;2023-04-06T02:16:07;5.82;;;5.40;;
46334;SDS011;32051;48.882;9.210;2023-04-06T02:18:33;11.85;;;4.90;;
46334;SDS011;32051;48.882;9.210;2023-04-06T02:21:00;5.93;;;5.32;;
46334;SDS011;32051;48.882;9.210;2023-04-06T02:23:26;5.53;;;5.03;;
46334;SDS011;32051;48.882;9.210;2023-04-06T02:25:52;7.50;;;5.78;;
46334;SDS011;32051;48.882;9.210;2023-04-06T02:28:18;7.75;;;6.63;;
46334;SDS011;32051;48.882;9.210;2023-04-06T02:30:44;6.30;;;5.68;;
46334;SDS011;32051;48.882;9.210;2023-04-06T02:33:12;16.40;;;6.13;;
46334;SDS011;32051;48.882;9.210;2023-04-06T02:35:43;5.07;;;4.63;;
46334;SDS011;32051;48.882;9.210;2023-04-06T02:38:10;7.38;;;6.13;;
46334;SDS011;32051;48.882;9.210;2023-04-06T02:40:36;7.45;;;6.20;;
46334;SDS011;32051;48.882;9.210;2023-04-06T02:43:13;6.10;;;5.50;;
46334;SDS011;32051;48.882;9.210;2023-04-06T02:45:41;11.18;;;6.22;;
46334;SDS011;32051;48.882;9.210;2023-04-06T02:48:09;8.35;;;6.57;;
46334;SDS011;32051;48.882;9.210;2023-04-06T02:50:35;6.03;;;5.53;;
46334;SDS011;32051;48.882;9.210;2023-04-06T02:53:05;6.00;;;5.25;;
46334;SDS011;32051;48.882;9.210;2023-04-06T02:55:32;7.85;;;6.07;;
46334;SDS011;32051;48.882;9.210;2023-04-06T02:57:58;7.95;;;5.97;;
46334;SDS011;32051;48.882;9.210;2023-04-06T03:00:30;6.07;;;5.55;;
46334;SDS011;32051;48.882;9.210;2023-04-06T03:02:56;6.32;;;5.38;;
46334;SDS011;32051;48.882;9.210;2023-04-06T03:05:24;10.98;;;6.18;;
46334;SDS011;32051;48.882;9.210;2023-04-06T03:07:50;7.18;;;6.45;;
46334;SDS011;32051;48.882;9.210;2023-04-06T03:10:25;11.45;;;6.57;;
46334;SDS011;32051;48.882;9.210;2023-04-06T03:12:51;8.60;;;6.70;;
46334;SDS011;32051;48.882;9.210;2023-04-06T03:15:23;8.02;;;6.38;;
46334;SDS011;32051;48.882;9.210;2023-04-06T03:17:55;7.15;;;6.55;;
46334;SDS011;32051;48.882;9.210;2023-04-06T03:20:35;9.52;;;6.57;;
46334;SDS011;32051;48.882;9.210;2023-04-06T03:23:01;8.93;;;7.40;;
46334;SDS011;32051;48.882;9.210;2023-04-06T03:25:32;6.57;;;5.90;;
46334;SDS011;32051;48.882;9.210;2023-04-06T03:28:02;8.80;;;5.97;;
46334;SDS011;32051;48.882;9.210;2023-04-06T03:30:32;7.60;;;6.90;;
46334;SDS011;32051;48.882;9.210;2023-04-06T03:32:58;8.07;;;7.38;;
46334;SDS011;32051;48.882;9.210;2023-04-06T03:35:27;9.07;;;7.13;;
46334;SDS011;32051;48.882;9.210;2023-04-06T03:37:53;13.57;;;6.22;;
46334;SDS011;32051;48.882;9.210;2023-04-06T03:40:19;8.65;;;6.55;;
46334;SDS011;32051;48.882;9.210;2023-04-06T03:42:45;7.35;;;6.38;;
46334;SDS011;32051;48.882;9.210;2023-04-06T03:45:13;11.43;;;7.07;;
46334;SDS011;32051;48.882;9.210;2023-04-06T03:47:45;8.20;;;7.32;;
46334;SDS011;32051;48.882;9.210;2023-04-06T03:50:12;12.13;;;8.50;;
46334;SDS011;32051;48.882;9.210;2023-04-06T03:52:38;11.55;;;8.10;;
46334;SDS011;32051;48.882;9.210;2023-04-06T03:55:05;13.35;;;8.88;;
46334;SDS011;32051;48.882;9.210;2023-04-06T03:57:31;12.93;;;8.40;;
46334;SDS011;32051;48.882;9.210;2023-04-06T03:59:57;11.85;;;8.60;;
46334;SDS011;32051;48.882;9.210;2023-04-06T04:02:25;14.55;;;8.35;;
46334;SDS011;32051;48.882;9.210;2023-04-06T04:04:51;9.80;;;7.90;;
46334;SDS011;32051;48.882;9.210;2023-04-06T04:07:17;12.25;;;8.35;;
46334;SDS011;32051;48.882;9.210;2023-04-06T04:09:43;13.57;;;8.38;;
46334;SDS011;32051;48.882;9.210;2023-04-06T04:12:10;14.65;;;9.13;;
46334;SDS011;32051;48.882;9.210;2023-04-06T04:14:36;14.38;;;8.55;;
46334;SDS011;32051;48.882;9.210;2023-04-06T04:17:02;9.05;;;8.13;;
46334;SDS011;32051;48.882;9.210;2023-04-06T04:19:28;10.02;;;8.98;;
46334;SDS011;32051;48.882;9.210;2023-04-06T04:21:55;15.32;;;8.63;;
46334;SDS011;32051;48.882;9.210;2023-04-06T04:24:30;14.70;;;8.82;;
46334;SDS011;32051;48.882;9.210;2023-04-06T04:26:56;16.17;;;7.93;;
46334;SDS011;32051;48.882;9.210;2023-04-06T04:29:22;7.97;;;7.32;;
46334;SDS011;32051;48.882;9.210;2023-04-06T04:31:50;12.65;;;7.10;;
46334;SDS011;32051;48.882;9.210;2023-04-06T04:34:17;18.48;;;7.70;;
46334;SDS011;32051;48.882;9.210;2023-04-06T04:36:49;10.73;;;7.60;;
46334;SDS011;32051;48.882;9.210;2023-04-06T04:39:22;10.55;;;7.53;;
46334;SDS011;32051;48.882;9.210;2023-04-06T04:41:56;12.38;;;8.73;;
46334;SDS011;32051;48.882;9.210;2023-04-06T04:44:22;13.32;;;7.95;;
46334;SDS011;32051;48.882;9.210;2023-04-06T04:46:49;11.73;;;7.78;;
46334;SDS011;32051;48.882;9.210;2023-04-06T04:49:18;12.15;;;7.50;;
46334;SDS011;32051;48.882;9.210;2023-04-06T04:51:45;11.13;;;8.68;;
46334;SDS011;32051;48.882;9.210;2023-04-06T04:54:16;11.20;;;8.55;;
46334;SDS011;32051;48.882;9.210;2023-04-06T04:56:42;10.07;;;8.02;;
46334;SDS011;32051;48.882;9.210;2023-04-06T04:59:22;9.68;;;8.68;;
46334;SDS011;32051;48.882;9.210;2023-04-06T05:01:56;17.35;;;7.90;;
46334;SDS011;32051;48.882;9.210;2023-04-06T05:04:31;16.58;;;9.60;;
46334;SDS011;32051;48.882;9.210;2023-04-06T05:07:07;12.43;;;10.88;;
46334;SDS011;32051;48.882;9.210;2023-04-06T05:09:36;9.48;;;8.40;;
46334;SDS011;32051;48.882;9.210;2023-04-06T05:12:03;14.48;;;9.73;;
46334;SDS011;32051;48.882;9.210;2023-04-06T05:14:34;10.63;;;8.68;;
46334;SDS011;32051;48.882;9.210;2023-04-06T05:17:04;12.98;;;9.40;;
46334;SDS011;32051;48.882;9.210;2023-04-06T05:19:30;12.60;;;9.25;;
46334;SDS011;32051;48.882;9.210;2023-04-06T05:21:56;12.88;;;8.88;;
46334;SDS011;32051;48.882;9.210;2023-04-06T05:24:22;11.85;;;8.98;;
46334;SDS011;32051;48.882;9.210;2023-04-06T05:26:49;11.20;;;8.73;;
46334;SDS011;32051;48.882;9.210;2023-04-06T05:29:21;12.30;;;10.27;;
46334;SDS011;32051;48.882;9.210;2023-04-06T05:31:47;14.80;;;8.00;;
46334;SDS011;32051;48.882;9.210;2023-04-06T05:34:13;9.35;;;8.55;;
46334;SDS011;32051;48.882;9.210;2023-04-06T05:36:40;14.75;;;9.63;;
46334;SDS011;32051;48.882;9.210;2023-04-06T05:39:15;19.85;;;8.50;;
46334;SDS011;32051;48.882;9.210;2023-04-06T05:41:49;11.85;;;8.00;;
46334;SDS011;32051;48.882;9.210;2023-04-06T05:44:21;8.25;;;7.40;;
46334;SDS011;32051;48.882;9.210;2023-04-06T05:46:57;11.18;;;8.40;;
46334;SDS011;32051;48.882;9.210;2023-04-06T05:49:23;13.10;;;7.97;;
46334;SDS011;32051;48.882;9.210;2023-04-06T05:51:50;10.38;;;6.82;;
46334;SDS011;32051;48.882;9.210;2023-04-06T05:54:16;8.00;;;7.22;;
46334;SDS011;32051;48.882;9.210;2023-04-06T05:56:43;16.83;;;7.05;;
46334;SDS011;32051;48.882;9.210;2023-04-06T05:59:11;12.13;;;7.55;;
46334;SDS011;32051;48.882;9.210;2023-04-06T06:01:38;8.63;;;6.10;;
46334;SDS011;32051;48.882;9.210;2023-04-06T06:04:04;8.52;;;6.82;;
46334;SDS011;32051;48.882;9.210;2023-04-06T06:06:34;7.60;;;6.85;;
46334;SDS011;32051;48.882;9.210;2023-04-06T06:09:16;7.55;;;6.50;;
46334;SDS011;32051;48.882;9.210;2023-04-06T06:11:55;8.52;;;7.47;;
46334;SDS011;32051;48.882;9.210;2023-04-06T06:14:25;13.02;;;6.78;;
46334;SDS011;32051;48.882;9.210;2023-04-06T06:16:53;15.98;;;8.15;;
46334;SDS011;32051;48.882;9.210;2023-04-06T06:19:20;5.95;;;5.32;;
46334;SDS011;32051;48.882;9.210;2023-04-06T06:21:47;6.57;;;6.00;;
46334;SDS011;32051;48.882;9.210;2023-04-06T06:24:13;7.65;;;6.90;;
46334;SDS011;32051;48.882;9.210;2023-04-06T06:26:40;14.10;;;6.80;;
46334;SDS011;32051;48.882;9.210;2023-04-06T06:29:07;10.57;;;6.80;;
46334;SDS011;32051;48.882;9.210;2023-04-06T06:31:36;7.57;;;6.20;;
46334;SDS011;32051;48.882;9.210;2023-04-06T06:34:03;9.52;;;6.32;;
46334;SDS011;32051;48.882;9.210;2023-04-06T06:36:31;8.75;;;7.63;;
46334;SDS011;32051;48.882;9.210;2023-04-06T06:38:57;9.65;;;7.68;;
46334;SDS011;32051;48.882;9.210;2023-04-06T06:41:25;9.32;;;6.75;;
46334;SDS011;32051;48.882;9.210;2023-04-06T06:43:52;6.68;;;6.07;;
46334;SDS011;32051;48.882;9.210;2023-04-06T06:46:18;10.55;;;6.60;;
46334;SDS011;32051;48.882;9.210;2023-04-06T06:48:44;10.93;;;8.45;;
46334;SDS011;32051;48.882;9.210;2023-04-06T06:51:10;7.75;;;6.97;;
46334;SDS011;32051;48.882;9.210;2023-04-06T06:53:39;9.30;;;6.20;;
46334;SDS011;32051;48.882;9.210;2023-04-06T06:56:05;12.65;;;6.88;;
46334;SDS011;32051;48.882;9.210;2023-04-06T06:58:31;9.60;;;7.15;;
46334;SDS011;32051;48.882;9.210;2023-04-06T07:00:59;14.02;;;7.13;;
46334;SDS011;32051;48.882;9.210;2023-04-06T07:03:27;10.05;;;6.75;;
46334;SDS011;32051;48.882;9.210;2023-04-06T07:05:53;8.23;;;6.40;;
46334;SDS011;32051;48.882;9.210;2023-04-06T07:08:22;7.50;;;6.70;;
46334;SDS011;32051;48.882;9.210;2023-04-06T07:10:49;7.55;;;6.78;;
46334;SDS011;32051;48.882;9.210;2023-04-06T07:13:17;7.95;;;7.15;;
46334;SDS011;32051;48.882;9.210;2023-04-06T07:15:48;11.10;;;7.50;;
46334;SDS011;32051;48.882;9.210;2023-04-06T07:18:15;9.20;;;6.78;;
46334;SDS011;32051;48.882;9.210;2023-04-06T07:20:41;7.72;;;6.45;;
46334;SDS011;32051;48.882;9.210;2023-04-06T07:23:08;6.97;;;6.38;;
46334;SDS011;32051;48.882;9.210;2023-04-06T07:25:34;11.45;;;7.10;;
46334;SDS011;32051;48.882;9.210;2023-04-06T07:28:01;9.90;;;6.93;;
46334;SDS011;32051;48.882;9.210;2023-04-06T07:30:28;10.15;;;7.38;;
46334;SDS011;32051;48.882;9.210;2023-04-06T07:32:55;10.65;;;7.15;;
46334;SDS011;32051;48.882;9.210;2023-04-06T07:35:26;17.35;;;8.25;;
46334;SDS011;32051;48.882;9.210;2023-04-06T07:37:53;9.15;;;7.20;;
46334;SDS011;32051;48.882;9.210;2023-04-06T07:40:20;8.15;;;7.35;;
46334;SDS011;32051;48.882;9.210;2023-04-06T07:42:48;10.60;;;7.25;;
46334;SDS011;32051;48.882;9.210;2023-04-06T07:45:15;7.53;;;6.82;;
46334;SDS011;32051;48.882;9.210;2023-04-06T07:47:42;9.32;;;7.80;;
46334;SDS011;32051;48.882;9.210;2023-04-06T07:50:08;10.75;;;8.52;;
46334;SDS011;32051;48.882;9.210;2023-04-06T07:52:36;11.18;;;7.55;;
46334;SDS011;32051;48.882;9.210;2023-04-06T07:55:02;10.57;;;7.80;;
46334;SDS011;32051;48.882;9.210;2023-04-06T07:57:28;15.07;;;7.82;;
46334;SDS011;32051;48.882;9.210;2023-04-06T07:59:54;9.32;;;7.45;;
46334;SDS011;32051;48.882;9.210;2023-04-06T08:02:20;7.85;;;6.97;;
46334;SDS011;32051;48.882;9.210;2023-04-06T08:04:47;10.95;;;7.32;;
46334;SDS011;32051;48.882;9.210;2023-04-06T08:07:13;12.90;;;7.88;;
46334;SDS011;32051;48.882;9.210;2023-04-06T08:09:39;11.90;;;7.28;;
46334;SDS011;32051;48.882;9.210;2023-04-06T08:12:06;14.38;;;8.60;;
46334;SDS011;32051;48.882;9.210;2023-04-06T08:14:32;8.20;;;6.70;;
46334;SDS011;32051;48.882;9.210;2023-04-06T08:16:58;9.63;;;6.63;;
46334;SDS011;32051;48.882;9.210;2023-04-06T08:19:24;12.68;;;7.80;;
46334;SDS011;32051;48.882;9.210;2023-04-06T08:21:50;12.10;;;8.32;;
46334;SDS011;32051;48.882;9.210;2023-04-06T08:24:16;12.55;;;8.10;;
46334;SDS011;32051;48.882;9.210;2023-04-06T08:26:42;11.02;;;8.00;;
46334;SDS011;32051;48.882;9.210;2023-04-06T08:29:08;11.43;;;7.63;;
46334;SDS011;32051;48.882;9.210;2023-04-06T08:31:34;9.85;;;7.53;;
46334;SDS011;32051;48.882;9.210;2023-04-06T08:34:01;7.90;;;6.57;;
46334;SDS011;32051;48.882;9.210;2023-04-06T08:36:28;13.05;;;8.75;;
46334;SDS011;32051;48.882;9.210;2023-04-06T08:38:54;10.73;;;7.55;;
46334;SDS011;32051;48.882;9.210;2023-04-06T08:41:20;12.55;;;8.65;;
46334;SDS011;32051;48.882;9.210;2023-04-06T08:46:13;9.77;;;8.02;;
46334;SDS011;32051;48.882;9.210;2023-04-06T08:48:41;8.05;;;6.82;;
46334;SDS011;32051;48.882;9.210;2023-04-06T08:51:08;13.70;;;7.03;;
46334;SDS011;32051;48.882;9.210;2023-04-06T08:53:35;7.65;;;6.35;;
46334;SDS011;32051;48.882;9.210;2023-04-06T08:56:01;7.35;;;6.70;;
46334;SDS011;32051;48.882;9.210;2023-04-06T08:58:28;14.38;;;6.22;;
46334;SDS011;32051;48.882;9.210;2023-04-06T09:01:02;7.60;;;5.68;;
46334;SDS011;32051;48.882;9.210;2023-04-06T09:03:37;15.90;;;5.95;;
46334;SDS011;32051;48.882;9.210;2023-04-06T09:06:06;19.75;;;6.68;;
46334;SDS011;32051;48.882;9.210;2023-04-06T09:08:37;6.18;;;5.57;;
46334;SDS011;32051;48.882;9.210;2023-04-06T09:11:04;14.65;;;5.90;;
46334;SDS011;32051;48.882;9.210;2023-04-06T09:13:31;10.27;;;6.47;;
46334;SDS011;32051;48.882;9.210;2023-04-06T09:16:00;20.27;;;6.75;;
46334;SDS011;32051;48.882;9.210;2023-04-06T09:18:28;12.88;;;6.82;;
46334;SDS011;32051;48.882;9.210;2023-04-06T09:21:04;7.68;;;6.47;;
46334;SDS011;32051;48.882;9.210;2023-04-06T09:23:31;9.45;;;6.25;;
46334;SDS011;32051;48.882;9.210;2023-04-06T09:28:52;7.90;;;7.00;;
46334;SDS011;32051;48.882;9.210;2023-04-06T09:33:50;12.35;;;7.38;;
46334;SDS011;32051;48.882;9.210;2023-04-06T09:36:17;10.75;;;7.15;;
46334;SDS011;32051;48.882;9.210;2023-04-06T09:38:53;8.25;;;6.25;;
46334;SDS011;32051;48.882;9.210;2023-04-06T09:41:27;8.95;;;7.35;;
46334;SDS011;32051;48.882;9.210;2023-04-06T09:46:30;7.45;;;6.75;;
46334;SDS011;32051;48.882;9.210;2023-04-06T09:48:58;12.38;;;7.35;;
46334;SDS011;32051;48.882;9.210;2023-04-06T09:51:25;7.15;;;6.15;;
46334;SDS011;32051;48.882;9.210;2023-04-06T09:53:55;10.40;;;6.53;;
46334;SDS011;32051;48.882;9.210;2023-04-06T09:56:28;7.38;;;6.68;;
46334;SDS011;32051;48.882;9.210;2023-04-06T09:58:57;7.85;;;7.13;;
46334;SDS011;32051;48.882;9.210;2023-04-06T10:01:28;6.82;;;6.03;;
46334;SDS011;32051;48.882;9.210;2023-04-06T10:04:39;12.25;;;6.63;;
46334;SDS011;32051;48.882;9.210;2023-04-06T10:06:44;7.80;;;6.70;;
46334;SDS011;32051;48.882;9.210;2023-04-06T10:09:17;5.80;;;5.28;;
46334;SDS011;32051;48.882;9.210;2023-04-06T10:11:43;6.95;;;6.13;;
46334;SDS011;32051;48.882;9.210;2023-04-06T10:14:09;7.40;;;5.65;;
46334;SDS011;32051;48.882;9.210;2023-04-06T10:16:36;8.35;;;5.55;;
46334;SDS011;32051;48.882;9.210;2023-04-06T10:19:13;7.25;;;6.30;;
46334;SDS011;32051;48.882;9.210;2023-04-06T10:21:40;5.35;;;4.88;;
46334;SDS011;32051;48.882;9.210;2023-04-06T10:24:08;6.70;;;5.85;;
46334;SDS011;32051;48.882;9.210;2023-04-06T10:26:38;14.05;;;7.22;;
46334;SDS011;32051;48.882;9.210;2023-04-06T10:29:05;7.28;;;6.07;;
46334;SDS011;32051;48.882;9.210;2023-04-06T10:31:31;11.77;;;6.88;;
46334;SDS011;32051;48.882;9.210;2023-04-06T10:33:58;11.80;;;6.68;;
46334;SDS011;32051;48.882;9.210;2023-04-06T10:36:25;9.35;;;6.90;;
46334;SDS011;32051;48.882;9.210;2023-04-06T10:38:58;7.18;;;6.47;;
46334;SDS011;32051;48.882;9.210;2023-04-06T10:41:31;10.88;;;8.00;;
46334;SDS011;32051;48.882;9.210;2023-04-06T10:43:58;8.32;;;7.50;;
46334;SDS011;32051;48.882;9.210;2023-04-06T10:46:27;9.15;;;8.23;;
46334;SDS011;32051;48.882;9.210;2023-04-06T10:48:53;9.63;;;7.28;;
46334;SDS011;32051;48.882;9.210;2023-04-06T10:51:23;13.95;;;11.68;;
46334;SDS011;32051;48.882;9.210;2023-04-06T10:53:49;11.88;;;7.18;;
46334;SDS011;32051;48.882;9.210;2023-04-06T10:56:16;11.73;;;7.75;;
46334;SDS011;32051;48.882;9.210;2023-04-06T10:58:46;9.40;;;7.93;;
46334;SDS011;32051;48.882;9.210;2023-04-06T11:01:14;8.50;;;7.57;;
46334;SDS011;32051;48.882;9.210;2023-04-06T11:03:47;8.63;;;7.35;;
46334;SDS011;32051;48.882;9.210;2023-04-06T11:06:23;8.45;;;6.32;;
46334;SDS011;32051;48.882;9.210;2023-04-06T11:08:50;12.15;;;7.03;;
46334;SDS011;32051;48.882;9.210;2023-04-06T11:11:19;7.20;;;6.60;;
46334;SDS011;32051;48.882;9.210;2023-04-06T11:13:48;7.60;;;7.00;;
46334;SDS011;32051;48.882;9.210;2023-04-06T11:18:52;8.27;;;7.53;;
46334;SDS011;32051;48.882;9.210;2023-04-06T11:21:30;9.55;;;7.28;;
46334;SDS011;32051;48.882;9.210;2023-04-06T11:24:08;8.05;;;6.55;;
46334;SDS011;32051;48.882;9.210;2023-04-06T11:26:38;10.32;;;7.72;;
46334;SDS011;32051;48.882;9.210;2023-04-06T11:29:05;7.30;;;6.60;;
46334;SDS011;32051;48.882;9.210;2023-04-06T11:31:36;7.35;;;5.88;;
46334;SDS011;32051;48.882;9.210;2023-04-06T11:34:08;13.30;;;7.45;;
46334;SDS011;32051;48.882;9.210;2023-04-06T11:36:35;8.27;;;6.97;;
46334;SDS011;32051;48.882;9.210;2023-04-06T11:39:02;8.68;;;7.57;;
46334;SDS011;32051;48.882;9.210;2023-04-06T11:41:28;12.00;;;5.32;;
46334;SDS011;32051;48.882;9.210;2023-04-06T11:43:55;7.85;;;6.38;;
46334;SDS011;32051;48.882;9.210;2023-04-06T11:46:21;8.82;;;6.72;;
46334;SDS011;32051;48.882;9.210;2023-04-06T11:48:47;6.45;;;5.85;;
46334;SDS011;32051;48.882;9.210;2023-04-06T11:51:12;8.68;;;6.82;;
46334;SDS011;32051;48.882;9.210;2023-04-06T11:53:47;9.27;;;7.15;;
46334;SDS011;32051;48.882;9.210;2023-04-06T11:56:23;6.18;;;5.57;;
46334;SDS011;32051;48.882;9.210;2023-04-06T11:58:50;6.65;;;5.90;;
46334;SDS011;32051;48.882;9.210;2023-04-06T12:01:16;7.32;;;6.57;;
46334;SDS011;32051;48.882;9.210;2023-04-06T12:03:41;6.70;;;6.15;;
46334;SDS011;32051;48.882;9.210;2023-04-06T12:06:07;7.43;;;5.82;;
46334;SDS011;32051;48.882;9.210;2023-04-06T12:08:33;8.05;;;6.65;;
46334;SDS011;32051;48.882;9.210;2023-04-06T12:10:58;6.93;;;6.43;;
46334;SDS011;32051;48.882;9.210;2023-04-06T12:13:25;8.00;;;5.85;;
46334;SDS011;32051;48.882;9.210;2023-04-06T12:15:52;7.95;;;5.65;;
46334;SDS011;32051;48.882;9.210;2023-04-06T12:18:19;8.02;;;7.05;;
46334;SDS011;32051;48.882;9.210;2023-04-06T12:20:51;7.05;;;6.38;;
46334;SDS011;32051;48.882;9.210;2023-04-06T12:23:18;8.95;;;5.07;;
46334;SDS011;32051;48.882;9.210;2023-04-06T12:25:44;9.10;;;5.60;;
46334;SDS011;32051;48.882;9.210;2023-04-06T12:28:16;6.43;;;5.55;;
46334;SDS011;32051;48.882;9.210;2023-04-06T12:30:45;7.75;;;5.63;;
46334;SDS011;32051;48.882;9.210;2023-04-06T12:33:11;6.47;;;5.78;;
46334;SDS011;32051;48.882;9.210;2023-04-06T12:35:37;8.40;;;5.45;;
46334;SDS011;32051;48.882;9.210;2023-04-06T12:38:03;8.05;;;5.55;;
46334;SDS011;32051;48.882;9.210;2023-04-06T12:40:30;6.65;;;5.95;;
46334;SDS011;32051;48.882;9.210;2023-04-06T12:42:56;5.60;;;4.95;;
46334;SDS011;32051;48.882;9.210;2023-04-06T12:45:22;11.70;;;5.15;;
46334;SDS011;32051;48.882;9.210;2023-04-06T12:47:48;5.40;;;4.50;;
46334;SDS011;32051;48.882;9.210;2023-04-06T12:50:15;6.00;;;5.32;;
46334;SDS011;32051;48.882;9.210;2023-04-06T12:52:41;5.65;;;5.05;;
46334;SDS011;32051;48.882;9.210;2023-04-06T12:55:07;6.20;;;5.60;;
46334;SDS011;32051;48.882;9.210;2023-04-06T12:57:33;6.68;;;5.47;;
46334;SDS011;32051;48.882;9.210;2023-04-06T12:59:59;9.63;;;6.50;;
46334;SDS011;32051;48.882;9.210;2023-04-06T13:02:25;5.82;;;5.32;;
46334;SDS011;32051;48.882;9.210;2023-04-06T13:04:52;5.47;;;5.07;;
46334;SDS011;32051;48.882;9.210;2023-04-06T13:07:18;8.52;;;5.15;;
46334;SDS011;32051;48.882;9.210;2023-04-06T13:09:44;7.20;;;4.20;;
46334;SDS011;32051;48.882;9.210;2023-04-06T13:12:12;5.32;;;4.80;;
46334;SDS011;32051;48.882;9.210;2023-04-06T13:14:38;5.05;;;4.65;;
46334;SDS011;32051;48.882;9.210;2023-04-06T13:17:04;5.40;;;4.40;;
46334;SDS011;32051;48.882;9.210;2023-04-06T13:19:31;6.38;;;5.85;;
46334;SDS011;32051;48.882;9.210;2023-04-06T13:21:57;4.80;;;4.50;;
46334;SDS011;32051;48.882;9.210;2023-04-06T13:24:23;6.63;;;5.35;;
46334;SDS011;32051;48.882;9.210;2023-04-06T13:26:50;7.85;;;5.38;;
46334;SDS011;32051;48.882;9.210;2023-04-06T13:29:16;5.28;;;4.88;;
46334;SDS011;32051;48.882;9.210;2023-04-06T13:31:42;5.20;;;4.80;;
46334;SDS011;32051;48.882;9.210;2023-04-06T13:34:08;5.43;;;5.03;;
46334;SDS011;32051;48.882;9.210;2023-04-06T13:36:35;6.07;;;5.13;;
46334;SDS011;32051;48.882;9.210;2023-04-06T13:39:01;4.80;;;4.47;;
46334;SDS011;32051;48.882;9.210;2023-04-06T13:41:27;6.45;;;5.35;;
46334;SDS011;32051;48.882;9.210;2023-04-06T13:43:53;6.25;;;4.75;;
46334;SDS011;32051;48.882;9.210;2023-04-06T13:46:19;6.90;;;4.80;;
46334;SDS011;32051;48.882;9.210;2023-04-06T13:48:45;7.07;;;5.68;;
46334;SDS011;32051;48.882;9.210;2023-04-06T13:51:12;5.93;;;4.75;;
46334;SDS011;32051;48.882;9.210;2023-04-06T13:53:40;5.18;;;4.70;;
46334;SDS011;32051;48.882;9.210;2023-04-06T13:56:06;4.53;;;4.22;;
46334;SDS011;32051;48.882;9.210;2023-04-06T13:58:33;4.85;;;4.35;;
46334;SDS011;32051;48.882;9.210;2023-04-06T14:01:05;4.90;;;4.50;;
46334;SDS011;32051;48.882;9.210;2023-04-06T14:03:32;9.07;;;4.80;;
46334;SDS011;32051;48.882;9.210;2023-04-06T14:05:58;5.82;;;5.32;;
46334;SDS011;32051;48.882;9.210;2023-04-06T14:08:24;5.38;;;4.63;;
46334;SDS011;32051;48.882;9.210;2023-04-06T14:10:50;4.70;;;4.35;;
46334;SDS011;32051;48.882;9.210;2023-04-06T14:13:16;6.32;;;4.20;;
46334;SDS011;32051;48.882;9.210;2023-04-06T14:15:42;6.57;;;4.07;;
46334;SDS011;32051;48.882;9.210;2023-04-06T14:18:08;5.32;;;4.53;;
46334;SDS011;32051;48.882;9.210;2023-04-06T14:20:34;4.45;;;4.05;;
46334;SDS011;32051;48.882;9.210;2023-04-06T14:23:00;5.28;;;4.88;;
46334;SDS011;32051;48.882;9.210;2023-04-06T14:25:26;5.63;;;5.13;;
46334;SDS011;32051;48.882;9.210;2023-04-06T14:27:52;8.48;;;4.55;;
46334;SDS011;32051;48.882;9.210;2023-04-06T14:30:18;5.55;;;4.40;;
46334;SDS011;32051;48.882;9.210;2023-04-06T14:32:44;5.57;;;5.03;;
46334;SDS011;32051;48.882;9.210;2023-04-06T14:35:10;6.50;;;5.90;;
46334;SDS011;32051;48.882;9.210;2023-04-06T14:37:37;6.43;;;4.47;;
46334;SDS011;32051;48.882;9.210;2023-04-06T14:40:03;7.75;;;4.55;;
46334;SDS011;32051;48.882;9.210;2023-04-06T14:42:29;7.13;;;5.38;;
46334;SDS011;32051;48.882;9.210;2023-04-06T14:44:57;5.10;;;4.57;;
46334;SDS011;32051;48.882;9.210;2023-04-06T14:47:23;8.10;;;5.15;;
46334;SDS011;32051;48.882;9.210;2023-04-06T14:49:49;6.45;;;5.35;;
46334;SDS011;32051;48.882;9.210;2023-04-06T14:52:16;5.65;;;5.15;;
46334;SDS011;32051;48.882;9.210;2023-04-06T14:54:42;7.40;;;5.22;;
46334;SDS011;32051;48.882;9.210;2023-04-06T14:57:07;14.93;;;5.15;;
46334;SDS011;32051;48.882;9.210;2023-04-06T14:59:33;5.57;;;4.93;;
46334;SDS011;32051;48.882;9.210;2023-04-06T15:02:00;5.25;;;4.75;;
46334;SDS011;32051;48.882;9.210;2023-04-06T15:04:26;5.10;;;4.32;;